createdAt,value
2023-04-17T00:02:03.114Z,38.38
2023-04-17T00:04:32.344Z,36.83
2023-04-17T00:07:03.344Z,35.00
2023-04-17T00:09:31.908Z,33.92
2023-04-17T00:12:01.069Z,32.72
2023-04-17T00:14:31.093Z,33.70
2023-04-17T00:16:59.377Z,33.20
2023-04-17T00:19:27.765Z,32.55
2023-04-17T00:21:56.057Z,33.47
2023-04-17T00:24:24.388Z,33.83
2023-04-17T00:26:52.739Z,34.88
2023-04-17T00:29:21.074Z,34.88
2023-04-17T00:31:53.508Z,28.80
2023-04-17T00:34:22.024Z,30.02
2023-04-17T00:36:50.330Z,30.67
2023-04-17T00:39:18.868Z,33.35
2023-04-17T00:41:50.101Z,32.45
2023-04-17T00:44:18.502Z,31.75
2023-04-17T00:46:47.020Z,30.85
2023-04-17T00:49:17.056Z,31.10
2023-04-17T00:51:45.674Z,31.13
2023-04-17T00:54:14.996Z,31.77
2023-04-17T00:56:44.148Z,33.72
2023-04-17T00:59:14.447Z,30.65
2023-04-17T01:01:43.287Z,29.80
2023-04-17T01:04:12.074Z,28.42
2023-04-17T01:06:41.985Z,28.15
2023-04-17T01:09:10.664Z,25.85
2023-04-17T01:11:39.560Z,26.92
2023-04-17T01:14:07.864Z,24.85
2023-04-17T01:16:40.284Z,24.77
2023-04-17T01:19:10.364Z,23.05
2023-04-17T01:21:38.875Z,23.48
2023-04-17T01:24:09.504Z,25.45
2023-04-17T01:26:38.537Z,26.88
2023-04-17T01:29:06.954Z,26.80
2023-04-17T01:31:35.417Z,26.67
2023-04-17T01:34:03.914Z,28.17
2023-04-17T01:36:32.235Z,27.23
2023-04-17T01:39:00.840Z,27.85
2023-04-17T01:41:30.506Z,27.38
2023-04-17T01:43:58.821Z,27.25
2023-04-17T01:46:27.139Z,27.17
2023-04-17T01:48:56.307Z,30.10
2023-04-17T01:51:24.584Z,28.63
2023-04-17T01:53:52.824Z,28.10
2023-04-17T01:56:21.303Z,25.90
2023-04-17T01:58:51.706Z,26.42
2023-04-17T02:01:20.054Z,26.15
2023-04-17T02:03:51.400Z,28.45
2023-04-17T02:06:19.813Z,26.88
2023-04-17T02:08:48.287Z,27.90
2023-04-17T02:11:16.586Z,26.80
2023-04-17T02:13:44.926Z,26.88
2023-04-17T02:16:14.667Z,27.15
2023-04-17T02:18:43.200Z,25.77
2023-04-17T02:21:11.499Z,26.50
2023-04-17T02:23:39.818Z,26.13
2023-04-17T02:26:08.098Z,27.67
2023-04-17T02:28:36.489Z,26.92
2023-04-17T02:31:08.877Z,27.75
2023-04-17T02:33:39.121Z,25.90
2023-04-17T02:36:08.492Z,26.83
2023-04-17T02:38:37.870Z,26.23
2023-04-17T02:41:06.465Z,25.65
2023-04-17T02:43:34.750Z,27.80
2023-04-17T02:46:03.199Z,24.75
2023-04-17T02:48:31.507Z,24.98
2023-04-17T02:51:01.245Z,24.45
2023-04-17T02:53:29.535Z,25.55
2023-04-17T02:55:57.823Z,26.23
2023-04-17T02:58:26.188Z,26.27
2023-04-17T03:01:02.776Z,25.35
2023-04-17T03:03:35.102Z,24.95
2023-04-17T03:06:08.261Z,25.85
2023-04-17T03:08:38.437Z,25.65
2023-04-17T03:11:07.445Z,27.55
2023-04-17T03:13:37.655Z,29.13
2023-04-17T03:16:07.296Z,30.13
2023-04-17T03:18:40.181Z,28.30
2023-04-17T03:21:10.160Z,28.27
2023-04-17T03:23:38.449Z,28.75
2023-04-17T03:26:06.908Z,29.30
2023-04-17T03:28:35.209Z,27.17
2023-04-17T03:31:03.500Z,28.50
2023-04-17T03:33:31.854Z,28.00
2023-04-17T03:36:00.108Z,27.08
2023-04-17T03:38:29.765Z,27.30
2023-04-17T03:40:58.133Z,28.10
2023-04-17T03:43:27.751Z,25.75
2023-04-17T03:45:56.101Z,24.30
2023-04-17T03:48:24.491Z,25.40
2023-04-17T03:50:53.253Z,24.23
2023-04-17T03:53:21.804Z,24.40
2023-04-17T03:55:51.486Z,24.33
2023-04-17T03:58:19.752Z,24.23
2023-04-17T04:00:55.386Z,25.75
2023-04-17T04:03:24.093Z,26.58
2023-04-17T04:05:52.605Z,23.73
2023-04-17T04:08:21.048Z,25.88
2023-04-17T04:10:50.819Z,27.85
2023-04-17T04:13:19.152Z,22.65
2023-04-17T04:15:49.878Z,25.33
2023-04-17T04:18:18.304Z,23.70
2023-04-17T04:20:46.997Z,21.63
2023-04-17T04:23:16.848Z,21.52
2023-04-17T04:25:47.282Z,22.70
2023-04-17T04:28:17.865Z,21.95
2023-04-17T04:30:50.948Z,20.15
2023-04-17T04:33:21.097Z,22.50
2023-04-17T04:35:56.109Z,20.98
2023-04-17T04:38:29.928Z,20.67
2023-04-17T04:41:10.156Z,21.48
2023-04-17T04:43:39.845Z,21.05
2023-04-17T04:46:08.228Z,21.33
2023-04-17T04:48:36.549Z,20.77
2023-04-17T04:51:05.228Z,20.85
2023-04-17T04:53:33.592Z,20.17
2023-04-17T04:56:02.204Z,22.20
2023-04-17T04:58:30.672Z,22.38
2023-04-17T05:01:00.738Z,22.13
2023-04-17T05:03:29.330Z,24.58
2023-04-17T05:05:57.733Z,25.23
2023-04-17T05:08:26.064Z,24.88
2023-04-17T05:10:54.388Z,25.33
2023-04-17T05:13:22.814Z,23.95
2023-04-17T05:15:51.600Z,24.15
2023-04-17T05:18:21.275Z,26.73
2023-04-17T05:20:52.814Z,25.80
2023-04-17T05:23:22.999Z,27.13
2023-04-17T05:25:51.433Z,26.00
2023-04-17T05:28:19.822Z,27.20
2023-04-17T05:30:50.136Z,27.63
2023-04-17T05:33:19.841Z,25.52
2023-04-17T05:35:48.213Z,27.77
2023-04-17T05:38:16.601Z,27.45
2023-04-17T05:40:47.621Z,26.73
2023-04-17T05:43:16.074Z,27.15
2023-04-17T05:45:44.439Z,28.88
2023-04-17T05:48:12.816Z,28.58
2023-04-17T05:50:42.628Z,28.38
2023-04-17T05:53:11.130Z,30.25
2023-04-17T05:55:39.429Z,32.00
2023-04-17T05:58:16.818Z,33.67
2023-04-17T06:00:52.416Z,29.35
2023-04-17T06:03:21.412Z,32.28
2023-04-17T06:05:52.080Z,28.55
2023-04-17T06:08:20.554Z,29.83
2023-04-17T06:10:55.442Z,29.67
2023-04-17T06:13:24.554Z,31.27
2023-04-17T06:15:52.931Z,30.48
2023-04-17T06:18:21.309Z,29.48
2023-04-17T06:20:51.070Z,30.38
2023-04-17T06:23:19.380Z,30.48
2023-04-17T06:25:47.855Z,31.60
2023-04-17T06:28:16.103Z,31.65
2023-04-17T06:30:44.749Z,30.90
2023-04-17T06:33:13.064Z,33.00
2023-04-17T06:35:41.703Z,33.10
2023-04-17T06:38:13.283Z,32.33
2023-04-17T06:40:41.887Z,32.60
2023-04-17T06:43:10.227Z,31.92
2023-04-17T06:45:42.157Z,32.03
2023-04-17T06:48:10.543Z,32.88
2023-04-17T06:50:42.649Z,31.38
2023-04-17T06:53:12.327Z,29.40
2023-04-17T06:55:40.693Z,30.80
2023-04-17T06:58:09.680Z,30.77
2023-04-17T07:00:38.030Z,30.33
2023-04-17T07:03:07.069Z,30.17
2023-04-17T07:05:35.717Z,28.85
2023-04-17T07:08:04.035Z,27.98
2023-04-17T07:10:33.684Z,28.25
2023-04-17T07:13:02.627Z,27.80
2023-04-17T07:15:31.562Z,28.30
2023-04-17T07:18:02.241Z,28.38
2023-04-17T07:20:34.039Z,28.50
2023-04-17T07:23:02.669Z,27.83
2023-04-17T07:25:31.069Z,28.30
2023-04-17T07:28:02.618Z,27.77
2023-04-17T07:30:32.421Z,28.55
2023-04-17T07:33:01.282Z,29.58
2023-04-17T07:35:29.737Z,27.88
2023-04-17T07:37:59.092Z,28.52
2023-04-17T07:40:27.666Z,29.67
2023-04-17T07:42:56.785Z,28.70
2023-04-17T07:45:29.542Z,29.35
2023-04-17T07:47:58.016Z,29.52
2023-04-17T07:50:26.601Z,27.65
2023-04-17T07:52:54.910Z,29.20
2023-04-17T07:55:23.450Z,29.73
2023-04-17T07:57:53.006Z,28.17
2023-04-17T08:00:21.983Z,30.00
2023-04-17T08:02:52.439Z,28.75
2023-04-17T08:05:21.001Z,28.13
2023-04-17T08:07:52.529Z,29.38
2023-04-17T08:10:21.075Z,28.25
2023-04-17T08:12:52.882Z,29.38
2023-04-17T08:15:21.337Z,29.83
2023-04-17T08:17:51.124Z,30.10
2023-04-17T08:20:19.768Z,29.48
2023-04-17T08:22:48.566Z,29.65
2023-04-17T08:25:16.980Z,29.23
2023-04-17T08:27:45.584Z,30.45
2023-04-17T08:30:18.600Z,30.55
2023-04-17T08:32:52.414Z,30.90
2023-04-17T08:35:21.196Z,31.02
2023-04-17T08:37:49.592Z,29.73
2023-04-17T08:40:18.808Z,30.85
2023-04-17T08:42:48.245Z,29.23
2023-04-17T08:45:17.490Z,28.90
2023-04-17T08:47:45.887Z,30.25
2023-04-17T08:50:18.245Z,29.15
2023-04-17T08:52:48.546Z,29.20
2023-04-17T08:55:19.669Z,29.05
2023-04-17T08:57:58.855Z,29.35
2023-04-17T09:00:32.481Z,32.22
2023-04-17T09:03:04.141Z,30.23
2023-04-17T09:05:34.403Z,30.30
2023-04-17T09:08:12.534Z,29.83
2023-04-17T09:10:43.337Z,29.95
2023-04-17T09:13:31.236Z,28.88
2023-04-17T09:16:08.162Z,29.10
2023-04-17T09:18:38.523Z,29.17
2023-04-17T09:21:14.027Z,29.13
2023-04-17T09:23:51.234Z,29.52
2023-04-17T09:26:22.139Z,29.25
2023-04-17T09:29:05.195Z,28.48
2023-04-17T09:31:36.299Z,30.85
2023-04-17T09:34:07.556Z,29.60
2023-04-17T09:36:39.619Z,28.35
2023-04-17T09:39:20.363Z,27.40
2023-04-17T09:41:49.002Z,28.98
2023-04-17T09:44:27.979Z,29.30
2023-04-17T09:46:57.110Z,27.48
2023-04-17T09:49:34.923Z,29.25
2023-04-17T09:52:05.501Z,29.88
2023-04-17T09:54:37.770Z,26.65
2023-04-17T09:57:08.639Z,25.10
2023-04-17T09:59:40.874Z,25.55
2023-04-17T10:02:11.629Z,27.88
2023-04-17T10:04:41.917Z,28.63
2023-04-17T10:07:12.731Z,26.38
2023-04-17T10:09:42.770Z,25.08
2023-04-17T10:12:16.434Z,26.02
2023-04-17T10:14:49.812Z,26.00
2023-04-17T10:17:31.788Z,25.67
2023-04-17T10:20:39.136Z,27.98
2023-04-17T10:23:34.073Z,26.73
2023-04-17T10:26:42.260Z,26.50
2023-04-17T10:29:12.792Z,25.58
2023-04-17T10:32:15.750Z,27.90
2023-04-17T10:34:44.248Z,27.00
2023-04-17T10:37:15.494Z,25.48
2023-04-17T10:40:02.908Z,26.15
2023-04-17T10:42:32.996Z,25.50
2023-04-17T10:45:05.473Z,27.75
2023-04-17T10:47:35.779Z,26.58
2023-04-17T10:50:10.106Z,26.23
2023-04-17T10:52:42.169Z,26.83
2023-04-17T10:55:16.432Z,25.85
2023-04-17T10:58:00.959Z,26.42
2023-04-17T11:00:34.123Z,26.20
2023-04-17T11:03:07.622Z,26.50
2023-04-17T11:05:36.777Z,25.13
2023-04-17T11:08:05.417Z,25.40
2023-04-17T11:10:38.039Z,24.77
2023-04-17T11:13:06.443Z,25.33
2023-04-17T11:15:36.152Z,25.90
2023-04-17T11:18:05.426Z,26.15
2023-04-17T11:20:37.675Z,25.10
2023-04-17T11:23:07.741Z,24.42
2023-04-17T11:25:38.629Z,23.75
2023-04-17T11:28:08.123Z,24.38
2023-04-17T11:30:40.764Z,23.55
2023-04-17T11:33:10.160Z,25.08
2023-04-17T11:35:44.716Z,22.83
2023-04-17T11:38:20.978Z,23.48
2023-04-17T11:40:53.717Z,21.92
2023-04-17T11:43:24.006Z,23.30
2023-04-17T11:45:53.868Z,23.88
2023-04-17T11:48:24.186Z,23.98
2023-04-17T11:50:57.296Z,24.13
2023-04-17T11:53:26.128Z,22.05
2023-04-17T11:56:14.872Z,22.15
2023-04-17T11:58:57.365Z,22.10
2023-04-17T12:01:27.175Z,22.48
2023-04-17T12:03:57.490Z,22.48
2023-04-17T12:06:26.735Z,21.70
2023-04-17T12:08:56.584Z,21.42
2023-04-17T12:11:31.256Z,21.38
2023-04-17T12:14:00.233Z,21.63
2023-04-17T12:16:30.233Z,21.52
2023-04-17T12:18:59.036Z,20.70
2023-04-17T12:21:27.325Z,21.45
2023-04-17T12:23:55.645Z,20.60
2023-04-17T12:26:26.061Z,20.80
2023-04-17T12:28:54.395Z,20.95
2023-04-17T12:31:22.908Z,20.77
2023-04-17T12:33:52.501Z,19.85
2023-04-17T12:36:20.864Z,21.65
2023-04-17T12:38:49.454Z,20.83
2023-04-17T12:41:17.780Z,20.98
2023-04-17T12:43:47.700Z,20.92
2023-04-17T12:46:16.150Z,19.73
2023-04-17T12:48:44.497Z,20.15
2023-04-17T12:51:12.778Z,19.05
2023-04-17T12:53:41.102Z,20.33
2023-04-17T12:56:09.641Z,20.55
2023-04-17T12:58:37.912Z,21.10
2023-04-17T13:01:07.804Z,21.02
2023-04-17T13:03:36.582Z,19.15
2023-04-17T13:06:05.473Z,20.17
2023-04-17T13:08:33.816Z,20.35
2023-04-17T13:11:03.816Z,20.02
2023-04-17T13:13:32.097Z,20.33
2023-04-17T13:16:01.079Z,21.33
2023-04-17T13:18:30.945Z,20.75
2023-04-17T13:20:59.218Z,20.48
2023-04-17T13:23:27.558Z,20.13
2023-04-17T13:25:57.738Z,19.95
2023-04-17T13:28:26.215Z,20.20
2023-04-17T13:30:54.518Z,21.02
2023-04-17T13:33:22.929Z,21.08
2023-04-17T13:35:53.959Z,20.95
2023-04-17T13:38:22.363Z,21.20
2023-04-17T13:40:50.730Z,23.00
2023-04-17T13:43:19.004Z,22.80
2023-04-17T13:45:47.730Z,22.48
2023-04-17T13:48:16.242Z,23.38
2023-04-17T13:50:44.572Z,23.02
2023-04-17T13:53:14.330Z,22.85
2023-04-17T13:55:42.967Z,23.17
2023-04-17T13:58:11.308Z,23.40
2023-04-17T14:00:39.710Z,23.90
2023-04-17T14:03:08.188Z,23.50
2023-04-17T14:05:37.018Z,23.15
2023-04-17T14:08:05.785Z,24.58
2023-04-17T14:10:36.681Z,23.05
2023-04-17T14:13:05.115Z,22.90
2023-04-17T14:15:33.640Z,22.40
2023-04-17T14:18:02.287Z,23.73
2023-04-17T14:20:30.909Z,23.13
2023-04-17T14:22:59.727Z,24.00
2023-04-17T14:25:28.341Z,24.73
2023-04-17T14:27:58.275Z,24.70
2023-04-17T14:30:26.814Z,24.23
2023-04-17T14:32:55.209Z,23.20
2023-04-17T14:35:23.536Z,23.27
2023-04-17T14:37:51.850Z,23.92
2023-04-17T14:40:20.364Z,23.10
2023-04-17T14:42:54.044Z,23.23
2023-04-17T14:45:24.229Z,23.35
2023-04-17T14:47:52.677Z,22.45
2023-04-17T14:50:21.249Z,22.75
2023-04-17T14:52:49.747Z,22.17
2023-04-17T14:55:18.216Z,22.80
2023-04-17T14:57:46.755Z,22.38
2023-04-17T15:00:17.008Z,22.98
2023-04-17T15:02:46.891Z,23.02
2023-04-17T15:05:22.050Z,21.92
2023-04-17T15:07:50.504Z,22.00
2023-04-17T15:10:18.829Z,22.63
2023-04-17T15:12:50.435Z,21.17
2023-04-17T15:15:18.930Z,22.55
2023-04-17T15:17:48.859Z,21.33
2023-04-17T15:20:17.435Z,22.17
2023-04-17T15:22:52.377Z,20.30
2023-04-17T15:25:21.015Z,21.45
2023-04-17T15:27:49.533Z,21.67
2023-04-17T15:30:17.937Z,20.70
2023-04-17T15:32:50.148Z,20.83
2023-04-17T15:35:18.679Z,21.15
2023-04-17T15:37:48.489Z,20.45
2023-04-17T15:40:17.556Z,21.33
2023-04-17T15:42:45.958Z,21.63
2023-04-17T15:45:14.342Z,21.38
2023-04-17T15:47:43.044Z,23.33
2023-04-17T15:50:13.943Z,21.63
2023-04-17T15:52:42.296Z,21.25
2023-04-17T15:55:11.440Z,23.50
2023-04-17T15:57:41.121Z,23.80
2023-04-17T16:00:12.971Z,23.23
2023-04-17T16:02:41.780Z,21.10
2023-04-17T16:05:12.282Z,22.17
2023-04-17T16:07:40.796Z,22.52
2023-04-17T16:10:13.878Z,21.10
2023-04-17T16:12:43.203Z,22.23
2023-04-17T16:15:12.876Z,22.60
2023-04-17T16:17:42.054Z,23.77
2023-04-17T16:20:13.359Z,21.20
2023-04-17T16:22:41.803Z,22.40
2023-04-17T16:25:12.142Z,21.23
2023-04-17T16:27:41.169Z,22.40
2023-04-17T16:30:11.578Z,22.58
2023-04-17T16:32:39.958Z,21.92
2023-04-17T16:35:09.604Z,22.15
2023-04-17T16:37:39.369Z,21.63
2023-04-17T16:40:11.664Z,20.45
2023-04-17T16:42:40.297Z,20.13
2023-04-17T16:45:09.688Z,20.65
2023-04-17T16:47:38.894Z,20.60
2023-04-17T16:50:11.155Z,21.35
2023-04-17T16:52:42.359Z,19.42
2023-04-17T16:55:11.434Z,19.92
2023-04-17T16:57:42.807Z,20.60
2023-04-17T17:00:14.125Z,19.75
2023-04-17T17:02:42.718Z,19.63
2023-04-17T17:05:11.519Z,19.20
2023-04-17T17:07:41.264Z,19.02
2023-04-17T17:10:11.092Z,19.02
2023-04-17T17:12:39.377Z,19.73
2023-04-17T17:15:09.196Z,18.88
2023-04-17T17:17:37.525Z,17.75
2023-04-17T17:20:07.546Z,18.63
2023-04-17T17:22:35.899Z,17.90
2023-04-17T17:25:07.015Z,17.73
2023-04-17T17:27:35.446Z,19.02
2023-04-17T17:30:04.374Z,18.48
2023-04-17T17:32:32.815Z,17.00
2023-04-17T17:35:01.307Z,18.17
2023-04-17T17:37:29.614Z,18.23
2023-04-17T17:39:57.898Z,17.55
2023-04-17T17:42:27.606Z,18.63
2023-04-17T17:44:56.101Z,18.33
2023-04-17T17:47:24.447Z,17.30
2023-04-17T17:49:52.875Z,17.08
2023-04-17T17:52:21.292Z,17.05
2023-04-17T17:54:49.736Z,17.90
2023-04-17T17:57:18.076Z,17.63
2023-04-17T17:59:48.010Z,18.20
2023-04-17T18:02:16.499Z,17.98
2023-04-17T18:04:44.925Z,18.25
2023-04-17T18:07:13.997Z,18.83
2023-04-17T18:09:42.424Z,19.65
2023-04-17T18:12:10.706Z,19.83
2023-04-17T18:14:39.072Z,19.73
2023-04-17T18:17:08.969Z,19.40
2023-04-17T18:19:40.848Z,19.30
2023-04-17T18:22:09.731Z,19.38
2023-04-17T18:24:38.168Z,18.92
2023-04-17T18:27:06.466Z,20.40
2023-04-17T18:29:35.017Z,19.27
2023-04-17T18:32:06.430Z,21.15
2023-04-17T18:34:36.134Z,21.02
2023-04-17T18:37:04.869Z,21.13
2023-04-17T18:39:36.084Z,20.38
2023-04-17T18:42:04.548Z,19.88
2023-04-17T18:44:37.384Z,21.17
2023-04-17T18:47:10.516Z,20.27
2023-04-17T18:49:40.252Z,22.25
2023-04-17T18:52:08.650Z,22.40
2023-04-17T18:54:37.514Z,23.15
2023-04-17T18:57:06.080Z,22.63
2023-04-17T18:59:34.568Z,22.55
2023-04-17T19:02:03.098Z,23.25
2023-04-17T19:04:31.487Z,24.13
2023-04-17T19:07:02.715Z,23.05
2023-04-17T19:09:41.087Z,23.27
2023-04-17T19:12:10.090Z,23.55
2023-04-17T19:14:38.441Z,24.00
2023-04-17T19:17:06.847Z,23.38
2023-04-17T19:19:35.255Z,24.67
2023-04-17T19:22:05.213Z,24.00
2023-04-17T19:24:33.574Z,24.77
2023-04-17T19:27:02.224Z,24.77
2023-04-17T19:29:30.567Z,25.15
2023-04-17T19:31:58.906Z,25.25
2023-04-17T19:34:27.250Z,25.55
2023-04-17T19:36:55.555Z,24.88
2023-04-17T19:39:28.050Z,26.67
2023-04-17T19:41:56.436Z,25.90
2023-04-17T19:44:25.994Z,26.92
2023-04-17T19:46:56.441Z,27.63
2023-04-17T19:49:24.839Z,27.33
2023-04-17T19:51:53.161Z,27.48
2023-04-17T19:54:21.624Z,26.30
2023-04-17T19:56:51.360Z,27.73
2023-04-17T19:59:19.755Z,27.33
2023-04-17T20:01:48.811Z,27.13
2023-04-17T20:04:17.505Z,28.88
2023-04-17T20:06:45.886Z,28.10
2023-04-17T20:09:15.513Z,29.17
2023-04-17T20:11:44.079Z,30.17
2023-04-17T20:14:14.842Z,29.85
2023-04-17T20:16:45.534Z,29.70
2023-04-17T20:19:14.391Z,30.30
2023-04-17T20:21:44.011Z,30.23
2023-04-17T20:24:12.979Z,30.05
2023-04-17T20:26:41.319Z,29.38
2023-04-17T20:29:09.705Z,30.13
2023-04-17T20:31:39.490Z,29.83
2023-04-17T20:34:07.895Z,29.60
2023-04-17T20:36:36.235Z,29.65
2023-04-17T20:39:04.754Z,29.70
2023-04-17T20:41:33.047Z,31.20
2023-04-17T20:44:02.819Z,30.20
2023-04-17T20:46:31.680Z,30.20
2023-04-17T20:49:01.473Z,29.80
2023-04-17T20:51:29.795Z,29.90
2023-04-17T20:53:58.106Z,30.63
2023-04-17T20:56:26.613Z,30.88
2023-04-17T20:58:54.959Z,29.65
2023-04-17T21:01:23.328Z,30.55
2023-04-17T21:03:51.764Z,30.50
2023-04-17T21:06:22.820Z,28.27
2023-04-17T21:08:51.197Z,29.75
2023-04-17T21:11:20.044Z,28.98
2023-04-17T21:13:51.512Z,28.90
2023-04-17T21:16:19.995Z,29.70
2023-04-17T21:18:51.399Z,28.60
2023-04-17T21:21:21.431Z,29.90
2023-04-17T21:23:49.817Z,29.35
2023-04-17T21:26:18.718Z,29.65
2023-04-17T21:28:47.016Z,27.83
2023-04-17T21:31:15.973Z,29.20
2023-04-17T21:33:44.248Z,29.38
2023-04-17T21:36:13.134Z,28.52
2023-04-17T21:38:43.198Z,27.15
2023-04-17T21:41:11.547Z,25.92
2023-04-17T21:43:39.848Z,26.73
2023-04-17T21:46:11.404Z,25.48
2023-04-17T21:48:40.807Z,24.77
2023-04-17T21:51:09.407Z,25.42
2023-04-17T21:53:38.532Z,24.55
2023-04-17T21:56:09.578Z,24.08
2023-04-17T21:58:37.943Z,23.40
2023-04-17T22:01:06.722Z,22.10
2023-04-17T22:03:35.254Z,22.98
2023-04-17T22:06:04.929Z,22.33
2023-04-17T22:08:33.263Z,21.05
2023-04-17T22:11:01.673Z,21.33
2023-04-17T22:13:32.160Z,21.25
2023-04-17T22:16:00.696Z,21.13
2023-04-17T22:18:31.326Z,21.85
2023-04-17T22:21:35.708Z,22.20
2023-04-17T22:24:40.990Z,20.58
2023-04-17T22:27:27.050Z,20.80
2023-04-17T22:30:15.472Z,20.35
2023-04-17T22:33:21.196Z,21.77
2023-04-17T22:36:11.194Z,19.60
2023-04-17T22:38:57.043Z,20.08
2023-04-17T22:42:01.275Z,19.85
2023-04-17T22:44:29.550Z,19.40
2023-04-17T22:46:59.207Z,20.98
2023-04-17T22:49:27.462Z,21.42
2023-04-17T22:51:55.740Z,21.88
2023-04-17T22:54:24.401Z,20.77
2023-04-17T22:56:52.910Z,21.70
2023-04-17T22:59:21.315Z,22.00
2023-04-17T23:01:53.984Z,19.92
2023-04-17T23:04:24.577Z,20.23
2023-04-17T23:06:52.816Z,20.38
2023-04-17T23:09:21.117Z,19.45
2023-04-17T23:11:49.482Z,21.13
2023-04-17T23:14:17.780Z,22.08
2023-04-17T23:16:46.023Z,20.17
2023-04-17T23:19:14.393Z,21.08
2023-04-17T23:21:44.069Z,22.42
2023-04-17T23:24:12.603Z,22.00
2023-04-17T23:26:41.894Z,22.80
2023-04-17T23:29:10.191Z,22.88
2023-04-17T23:31:38.745Z,23.83
2023-04-17T23:34:07.066Z,24.08
2023-04-17T23:36:35.429Z,22.50
2023-04-17T23:39:05.787Z,22.98
2023-04-17T23:41:34.981Z,22.77
2023-04-17T23:44:04.355Z,22.75
2023-04-17T23:46:32.637Z,23.35
2023-04-17T23:49:00.993Z,24.00
2023-04-17T23:51:29.786Z,23.80
2023-04-17T23:53:59.898Z,23.58
2023-04-17T23:56:31.144Z,23.70
2023-04-17T23:58:59.628Z,23.48
